Time;durP1;ratioP1;P1;durP2;ratioP2;P2;SDS_P1;SDS_P2;PMS_P1;PMS_P2;Temp;Humidity;BMP_temperature;BMP_pressure;BME280_temperature;BME280_humidity;BME280_pressure;Samples;Min_cycle;Max_cycle;Signal;HPM_P1;HPM_P2
2024/04/11 00:01:22;;;;;;;7.80;1.90;;;;;;;6.42;60.80;96997.91;5434092;26;20231;-82
2024/04/11 00:03:48;;;;;;;3.70;1.93;;;;;;;6.40;60.84;96995.41;5429204;26;20231;-82
2024/04/11 00:06:13;;;;;;;8.77;1.97;;;;;;;6.35;61.64;97001.75;5438289;26;20230;-82
2024/04/11 00:08:41;;;;;;;5.53;1.90;;;;;;;6.33;61.80;96994.09;5408271;26;20233;-83
2024/04/11 00:11:07;;;;;;;6.30;1.70;;;;;;;6.30;61.61;96989.13;5426605;26;20234;-82
2024/04/11 00:13:32;;;;;;;5.63;2.20;;;;;;;6.31;62.10;96993.34;5436264;26;20766;-82
2024/04/11 00:15:58;;;;;;;4.87;1.90;;;;;;;6.32;61.76;96996.75;5400366;26;20614;-82
2024/04/11 00:18:24;;;;;;;2.97;1.37;;;;;;;6.28;61.54;96996.13;5435558;26;20803;-83
2024/04/11 00:20:50;;;;;;;6.57;1.87;;;;;;;6.26;61.66;96985.03;5388971;26;20251;-82
2024/04/11 00:23:15;;;;;;;3.73;1.90;;;;;;;6.23;61.91;96980.06;5393594;26;20235;-83
2024/04/11 00:25:42;;;;;;;3.00;1.53;;;;;;;6.25;61.75;96980.78;5437366;26;20633;-83
2024/04/11 00:28:09;;;;;;;6.67;2.13;;;;;;;6.24;62.19;96989.44;5408717;26;20238;-83
2024/04/11 00:30:35;;;;;;;7.43;1.77;;;;;;;6.20;61.94;96973.31;5406088;26;20307;-83
2024/04/11 00:33:01;;;;;;;3.80;1.90;;;;;;;6.25;61.94;96978.22;5440120;26;20655;-82
2024/04/11 00:35:26;;;;;;;7.87;2.10;;;;;;;6.20;62.34;96977.66;5400707;26;20251;-82
2024/04/11 00:37:51;;;;;;;4.00;1.77;;;;;;;6.21;62.19;96977.56;5396859;26;20239;-83
2024/04/11 00:40:17;;;;;;;4.67;1.80;;;;;;;6.17;62.17;96973.47;5429721;26;20263;-83
2024/04/11 00:42:43;;;;;;;4.67;2.10;;;;;;;6.14;62.74;96985.72;5431484;26;20296;-83
2024/04/11 00:45:09;;;;;;;3.63;1.90;;;;;;;6.16;62.63;96991.63;5436350;26;20328;-82
2024/04/11 00:47:34;;;;;;;4.87;1.53;;;;;;;6.16;62.50;96987.28;5399281;26;20779;-82
2024/04/11 00:50:00;;;;;;;7.57;1.77;;;;;;;6.16;62.54;96996.78;5431809;26;20246;-83
2024/04/11 00:52:26;;;;;;;6.37;1.90;;;;;;;6.16;62.18;96992.44;5431572;26;20295;-83
2024/04/11 00:54:52;;;;;;;6.80;2.00;;;;;;;6.16;62.46;96989.03;5427369;26;20280;-83
2024/04/11 01:00:42;;;;;;;4.13;1.80;;;;;;;6.18;61.87;96992.38;5423965;26;20864;-83
2024/04/11 01:03:08;;;;;;;4.50;1.87;;;;;;;6.20;62.19;96991.38;5425827;26;20749;-83
2024/04/11 01:42:36;;;;;;;5.77;1.80;;;;;;;5.99;62.55;96977.09;5437606;26;20312;-82
2024/04/11 01:45:02;;;;;;;5.93;1.93;;;;;;;5.96;62.68;96972.09;5419077;26;20240;-83
2024/04/11 01:47:29;;;;;;;5.33;1.97;;;;;;;5.96;62.34;96962.63;5428973;26;20320;-82
2024/04/11 01:49:54;;;;;;;7.67;1.90;;;;;;;5.94;62.36;96964.47;5404074;26;20293;-83
2024/04/11 01:52:20;;;;;;;5.00;2.27;;;;;;;5.93;62.67;96964.56;5432022;26;20247;-82
2024/04/11 01:54:45;;;;;;;8.40;1.70;;;;;;;5.88;63.23;96959.59;5398253;26;20336;-83
2024/04/11 01:57:10;;;;;;;5.70;1.87;;;;;;;5.93;62.80;96960.22;5390226;26;20291;-83
2024/04/11 01:59:36;;;;;;;5.30;1.63;;;;;;;5.91;62.49;96950.88;5408490;26;20246;-83
2024/04/11 02:02:02;;;;;;;2.60;1.50;;;;;;;5.94;62.71;96958.47;5430435;26;20243;-81
2024/04/11 02:04:30;;;;;;;9.20;1.77;;;;;;;5.89;63.17;96961.25;5401648;26;20349;-83
2024/04/11 02:06:56;;;;;;;5.67;1.47;;;;;;;5.89;63.16;96969.00;5430962;26;20234;-82
2024/04/11 02:09:23;;;;;;;8.20;1.57;;;;;;;5.86;63.15;96964.00;5443401;26;20257;-83
2024/04/11 02:11:53;;;;;;;8.57;1.77;;;;;;;5.85;63.47;96966.69;5432620;26;20242;-82
2024/04/11 02:14:18;;;;;;;5.00;1.87;;;;;;;5.83;63.96;96964.19;5400269;26;20303;-83
2024/04/11 02:16:44;;;;;;;4.13;1.50;;;;;;;5.81;63.19;96970.31;5401755;26;20270;-83
2024/04/11 02:19:11;;;;;;;7.10;1.70;;;;;;;5.82;63.33;96972.81;5440358;26;20323;-82
2024/04/11 02:21:43;;;;;;;5.53;1.60;;;;;;;5.82;63.72;96974.56;5435400;26;20267;-83
2024/04/11 02:24:11;;;;;;;4.70;1.47;;;;;;;5.79;63.44;96973.00;5442644;26;20238;-82
2024/04/11 02:26:37;;;;;;;6.70;1.70;;;;;;;5.78;63.37;96973.91;5436831;26;20238;-82
2024/04/11 02:29:03;;;;;;;4.20;1.77;;;;;;;5.76;63.71;96974.91;5429238;26;20776;-84
2024/04/11 02:31:29;;;;;;;6.70;1.60;;;;;;;5.75;63.72;96976.66;5397852;26;20258;-82
2024/04/11 02:33:57;;;;;;;5.90;2.00;;;;;;;5.73;63.81;96973.31;5399071;26;20238;-82
2024/04/11 02:36:23;;;;;;;3.73;1.30;;;;;;;5.75;63.78;96968.94;5426711;26;20239;-83
2024/04/11 02:38:49;;;;;;;4.23;1.90;;;;;;;5.70;64.18;96973.50;5410820;26;20269;-83
2024/04/11 02:41:14;;;;;;;4.63;1.90;;;;;;;5.69;63.42;96975.25;5431026;26;20313;-83
2024/04/11 02:43:40;;;;;;;4.30;1.93;;;;;;;5.69;63.61;96979.56;5405141;26;20242;-82
2024/04/11 02:46:15;;;;;;;5.43;1.57;;;;;;;5.66;63.78;96978.00;5428283;26;20242;-82
2024/04/11 02:48:43;;;;;;;7.50;1.50;;;;;;;5.67;64.18;96971.09;5438982;26;20620;-83
2024/04/11 02:51:09;;;;;;;8.27;1.70;;;;;;;5.68;63.90;96970.19;5437180;26;20285;-81
2024/04/11 02:53:34;;;;;;;5.00;1.53;;;;;;;5.67;64.22;96976.25;5436877;26;20237;-83
2024/04/11 02:56:00;;;;;;;5.80;1.60;;;;;;;5.69;63.69;96970.09;5423103;26;20247;-81
2024/04/11 02:58:27;;;;;;;5.07;1.33;;;;;;;5.65;64.41;96972.91;5400474;26;20237;-82
2024/04/11 03:01:04;;;;;;;8.00;2.17;;;;;;;5.63;64.26;96972.16;5435973;26;20720;-82
2024/04/11 03:03:32;;;;;;;8.10;1.77;;;;;;;5.64;63.97;96973.81;5377125;26;20241;-82
2024/04/11 03:06:12;;;;;;;3.27;1.80;;;;;;;5.67;64.22;96979.66;5401734;26;20243;-83
2024/04/11 03:08:40;;;;;;;5.97;1.57;;;;;;;5.64;64.11;96978.97;5450603;26;20322;-82
2024/04/11 03:11:06;;;;;;;5.50;1.47;;;;;;;5.63;64.25;96975.56;5440831;26;20239;-82
2024/04/11 03:13:32;;;;;;;4.13;1.80;;;;;;;5.62;64.09;96975.66;5438095;26;20289;-83
2024/04/11 03:16:00;;;;;;;3.03;1.43;;;;;;;5.60;64.05;96973.16;5434243;26;20731;-82
2024/04/11 03:18:32;;;;;;;4.97;1.70;;;;;;;5.64;64.40;96974.63;5422039;26;20241;-81
2024/04/11 03:20:59;;;;;;;10.60;2.10;;;;;;;5.65;64.51;96983.19;5388037;26;20244;-82
2024/04/11 03:23:26;;;;;;;5.20;1.50;;;;;;;5.65;64.52;96989.22;5440503;26;20841;-83
2024/04/11 03:25:52;;;;;;;6.30;1.70;;;;;;;5.61;64.77;96982.56;5439808;26;20259;-83
2024/04/11 03:28:18;;;;;;;3.03;1.50;;;;;;;5.58;64.61;96980.16;5434115;26;20291;-83
2024/04/11 03:31:04;;;;;;;4.57;1.40;;;;;;;5.64;64.40;96978.97;5434126;26;20234;-83
2024/04/11 03:33:32;;;;;;;6.13;1.90;;;;;;;5.63;65.02;96978.13;5400037;26;20330;-82
2024/04/11 03:36:00;;;;;;;4.33;1.60;;;;;;;5.63;64.81;96990.19;5428367;26;20286;-84
2024/04/11 03:38:27;;;;;;;3.33;2.00;;;;;;;5.62;64.35;96988.53;5431179;26;20281;-82
2024/04/11 03:41:02;;;;;;;5.57;1.93;;;;;;;5.66;64.27;96995.19;5428868;26;20241;-83
2024/04/11 03:43:27;;;;;;;4.97;1.80;;;;;;;5.65;64.59;96996.94;5437040;26;20280;-83
2024/04/11 03:46:21;;;;;;;3.67;1.80;;;;;;;5.65;64.44;96998.66;5399353;26;20278;-83
2024/04/11 03:48:57;;;;;;;4.50;1.80;;;;;;;5.63;64.80;97001.34;5430585;26;20239;-83
2024/04/11 03:51:25;;;;;;;7.73;2.87;;;;;;;5.63;64.80;97000.50;5433988;26;20230;-83
2024/04/11 03:53:53;;;;;;;3.77;1.50;;;;;;;5.57;65.10;96993.13;5436749;26;20242;-84
2024/04/11 03:56:21;;;;;;;5.57;1.77;;;;;;;5.58;65.00;96998.19;5392239;26;20337;-83
2024/04/11 03:58:47;;;;;;;4.53;1.43;;;;;;;5.58;64.87;97000.75;5414378;26;20243;-84
2024/04/11 04:01:13;;;;;;;4.37;1.40;;;;;;;5.61;64.88;96994.59;5404484;26;20297;-83
2024/04/11 04:03:40;;;;;;;7.40;2.30;;;;;;;5.64;65.15;97005.56;5439800;26;20589;-83
2024/04/11 04:06:06;;;;;;;4.10;1.80;;;;;;;5.67;64.96;96995.13;5400975;26;20585;-83
2024/04/11 04:08:31;;;;;;;6.07;1.90;;;;;;;5.74;65.16;97005.91;5436718;26;20310;-83
2024/04/11 04:10:56;;;;;;;3.67;2.10;;;;;;;5.79;65.05;97001.34;5402622;26;21069;-82
2024/04/11 04:13:22;;;;;;;7.23;1.90;;;;;;;5.83;64.69;97000.28;5431393;26;20880;-83
2024/04/11 04:15:47;;;;;;;4.87;1.80;;;;;;;5.80;64.65;97005.59;5404287;26;20231;-82
2024/04/11 04:18:13;;;;;;;5.67;1.73;;;;;;;5.78;64.69;97012.56;5398930;26;20281;-83
2024/04/11 04:20:42;;;;;;;6.13;1.70;;;;;;;5.77;64.71;97013.50;5396842;26;20352;-83
2024/04/11 04:23:10;;;;;;;6.97;1.63;;;;;;;5.75;64.76;97012.75;5431784;26;20306;-83
2024/04/11 04:25:38;;;;;;;5.20;1.80;;;;;;;5.75;64.80;97007.59;5408095;26;20238;-84
2024/04/11 04:28:07;;;;;;;6.37;1.80;;;;;;;5.75;64.95;97014.50;5410126;26;20242;-83
2024/04/11 04:30:33;;;;;;;7.23;2.00;;;;;;;5.75;64.87;97017.91;5396595;26;20278;-83
2024/04/11 04:32:58;;;;;;;3.87;1.43;;;;;;;5.71;65.20;97020.72;5444608;26;20288;-82
2024/04/11 04:35:28;;;;;;;4.30;1.53;;;;;;;5.71;64.99;97026.69;5440372;26;20235;-83
2024/04/11 04:37:53;;;;;;;3.77;1.80;;;;;;;5.69;65.11;97029.38;5401627;26;20247;-82
2024/04/11 04:40:19;;;;;;;6.50;2.17;;;;;;;5.67;65.31;97025.22;5405172;26;20284;-83
2024/04/11 04:42:44;;;;;;;4.60;1.93;;;;;;;5.68;65.43;97032.03;5441393;26;20277;-82
2024/04/11 04:45:12;;;;;;;4.23;1.80;;;;;;;5.72;65.34;97038.66;5435959;26;20233;-82
2024/04/11 04:47:40;;;;;;;5.43;1.50;;;;;;;5.75;64.92;97041.09;5396802;26;20230;-83
2024/04/11 04:50:06;;;;;;;4.73;2.20;;;;;;;5.78;64.76;97042.69;5435525;26;20245;-82
2024/04/11 04:52:32;;;;;;;7.30;1.90;;;;;;;5.93;64.54;97047.06;5437148;26;20322;-82
2024/04/11 04:54:57;;;;;;;4.10;2.03;;;;;;;5.97;64.00;97044.22;5434176;26;20273;-83
2024/04/11 04:57:25;;;;;;;5.50;1.80;;;;;;;6.06;63.70;97049.78;5398533;26;20721;-83
2024/04/11 04:59:51;;;;;;;5.27;1.90;;;;;;;6.11;63.19;97050.38;5433511;26;20237;-82
2024/04/11 05:02:16;;;;;;;7.77;1.87;;;;;;;6.20;63.16;97049.88;5407641;26;20315;-82
2024/04/11 05:04:41;;;;;;;3.50;1.67;;;;;;;6.28;62.95;97047.72;5413354;26;20247;-82
2024/04/11 05:07:09;;;;;;;5.77;1.40;;;;;;;6.32;62.40;97056.94;5437772;26;20243;-82
2024/04/11 05:09:35;;;;;;;4.63;1.70;;;;;;;6.42;62.33;97055.50;5440028;26;20242;-81
2024/04/11 05:12:04;;;;;;;7.27;1.60;;;;;;;6.51;61.77;97064.47;5432014;26;20268;-82
2024/04/11 05:14:31;;;;;;;5.50;1.73;;;;;;;6.54;61.87;97061.75;5432518;26;20252;-84
2024/04/11 05:16:58;;;;;;;3.63;1.80;;;;;;;6.55;62.23;97060.00;5435922;26;20238;-83
2024/04/11 05:19:25;;;;;;;4.17;1.93;;;;;;;6.55;61.86;97060.00;5434798;26;20346;-82
2024/04/11 05:21:51;;;;;;;7.13;1.87;;;;;;;6.59;62.19;97067.47;5398397;26;20242;-82
2024/04/11 05:24:16;;;;;;;7.27;1.90;;;;;;;6.65;62.28;97063.72;5395685;26;20274;-82
2024/04/11 05:26:48;;;;;;;3.80;1.70;;;;;;;6.74;62.21;97066.63;5435073;26;20277;-83
2024/04/11 05:29:15;;;;;;;3.93;1.50;;;;;;;6.85;61.90;97067.75;5403459;26;20246;-82
2024/04/11 05:31:41;;;;;;;8.10;1.80;;;;;;;6.88;61.77;97060.66;5423572;26;20228;-82
2024/04/11 05:34:06;;;;;;;4.60;1.50;;;;;;;6.98;61.10;97064.38;5391641;26;20664;-81
2024/04/11 05:36:32;;;;;;;3.50;1.70;;;;;;;7.03;61.23;97062.34;5424870;26;20235;-82
2024/04/11 05:38:58;;;;;;;6.13;1.57;;;;;;;7.10;61.60;97058.50;5406223;26;20330;-82
2024/04/11 05:41:24;;;;;;;4.93;1.93;;;;;;;7.24;61.31;97065.44;5430522;26;20235;-83
2024/04/11 05:43:50;;;;;;;9.57;2.00;;;;;;;7.34;60.86;97064.00;5401913;26;20660;-82
2024/04/11 05:46:19;;;;;;;5.83;1.87;;;;;;;7.34;60.80;97068.31;5436908;26;20230;-82
2024/04/11 05:48:48;;;;;;;4.80;1.60;;;;;;;7.43;61.66;97067.78;5402176;26;20239;-82
2024/04/11 05:51:14;;;;;;;2.33;1.27;;;;;;;7.62;60.78;97065.75;5428031;26;20261;-82
2024/04/11 05:53:41;;;;;;;7.37;1.63;;;;;;;7.72;60.85;97065.19;5435027;26;20267;-82
2024/04/11 05:56:08;;;;;;;6.27;1.97;;;;;;;7.79;61.24;97062.16;5432207;26;20285;-81
2024/04/11 05:58:34;;;;;;;4.20;1.77;;;;;;;7.83;61.76;97067.94;5439982;26;20237;-82
2024/04/11 06:01:05;;;;;;;4.53;1.70;;;;;;;7.94;61.13;97060.34;5405757;26;20284;-82
2024/04/11 06:03:34;;;;;;;3.60;1.50;;;;;;;8.04;60.56;97063.19;5429133;26;20246;-83
2024/04/11 06:05:59;;;;;;;9.97;1.90;;;;;;;8.11;60.06;97067.91;5434068;26;20234;-82
2024/04/11 06:08:25;;;;;;;5.73;1.87;;;;;;;8.14;59.40;97067.75;5427877;26;20240;-83
2024/04/11 06:10:51;;;;;;;3.83;1.70;;;;;;;8.28;59.60;97073.78;5458204;25;20234;-83
2024/04/11 06:13:17;;;;;;;2.67;1.30;;;;;;;8.38;59.37;97080.09;5452949;25;20223;-83
2024/04/11 06:15:43;;;;;;;2.90;1.37;;;;;;;8.48;59.08;97078.56;5405876;26;20251;-85
2024/04/11 06:18:09;;;;;;;6.20;2.20;;;;;;;8.61;58.55;97076.03;5409388;26;20345;-84
2024/04/11 06:20:38;;;;;;;5.73;1.57;;;;;;;8.59;58.90;97093.44;5418963;26;20254;-83
2024/04/11 06:23:12;;;;;;;4.80;1.73;;;;;;;8.81;58.19;97096.31;5427371;26;20581;-83
2024/04/11 06:25:39;;;;;;;4.07;1.57;;;;;;;8.92;57.14;97100.78;5403115;26;20238;-83
2024/04/11 06:28:05;;;;;;;7.20;1.80;;;;;;;9.09;56.70;97103.94;5402217;26;20285;-83
2024/04/11 06:30:35;;;;;;;3.17;1.47;;;;;;;9.25;56.67;97108.94;5423308;26;20259;-83
2024/04/11 06:33:02;;;;;;;4.40;1.90;;;;;;;9.32;56.23;97099.84;5431660;26;20230;-83
2024/04/11 06:35:28;;;;;;;8.20;1.90;;;;;;;9.40;55.11;97106.28;5428683;26;20736;-83
2024/04/11 06:37:53;;;;;;;10.47;2.80;;;;;;;9.54;55.34;97119.13;5401463;26;20238;-82
2024/04/11 06:40:19;;;;;;;6.33;2.10;;;;;;;9.64;54.40;97115.03;5399176;26;20242;-83
2024/04/11 06:42:46;;;;;;;5.37;1.50;;;;;;;9.77;53.34;97121.03;5395233;26;20351;-83
2024/04/11 06:45:23;;;;;;;9.00;2.17;;;;;;;9.96;53.12;97114.56;5393198;26;20545;-84
2024/04/11 06:47:48;;;;;;;5.07;1.90;;;;;;;10.00;52.44;97116.03;5424834;26;20700;-83
2024/04/11 06:50:14;;;;;;;6.50;1.90;;;;;;;10.08;51.41;97119.78;5426471;26;20228;-83
2024/04/11 06:52:39;;;;;;;4.27;1.40;;;;;;;10.16;51.53;97119.25;5424218;26;20231;-83
2024/04/11 06:55:05;;;;;;;5.43;1.80;;;;;;;10.21;53.51;97119.72;5422028;26;20278;-83
2024/04/11 06:57:36;;;;;;;5.30;1.70;;;;;;;10.32;52.33;97124.19;5421455;26;20243;-83
2024/04/11 07:00:03;;;;;;;6.50;1.60;;;;;;;10.43;50.67;97129.50;5384990;26;20293;-83
2024/04/11 07:02:30;;;;;;;5.37;1.60;;;;;;;10.49;50.30;97124.66;5390812;26;20232;-83
2024/04/11 07:04:56;;;;;;;3.77;1.50;;;;;;;10.59;49.46;97121.41;5421697;26;20247;-83
2024/04/11 07:07:23;;;;;;;4.30;1.80;;;;;;;10.72;49.01;97124.81;5421188;26;20289;-83
2024/04/11 07:09:49;;;;;;;7.17;1.90;;;;;;;10.74;50.04;97122.94;5388974;26;20247;-83
2024/04/11 07:12:28;;;;;;;7.70;2.43;;;;;;;10.78;49.84;97129.59;5417032;26;20284;-83
2024/04/11 07:14:56;;;;;;;3.47;1.20;;;;;;;10.88;49.37;97134.94;5402515;26;20581;-84
2024/04/11 07:17:27;;;;;;;5.73;1.50;;;;;;;10.94;48.11;97124.09;5413099;26;20243;-83
2024/04/11 07:19:54;;;;;;;4.00;1.40;;;;;;;11.02;48.42;97129.56;5433637;26;20238;-82
2024/04/11 07:22:24;;;;;;;3.63;1.50;;;;;;;10.92;48.30;97132.00;5423571;26;20227;-82
2024/04/11 07:24:49;;;;;;;2.67;1.30;;;;;;;11.29;47.61;97131.91;5392683;26;20644;-83
2024/04/11 07:27:17;;;;;;;5.70;1.90;;;;;;;11.16;46.57;97134.59;5401063;26;20227;-83
2024/04/11 07:29:45;;;;;;;4.83;1.67;;;;;;;11.21;46.06;97139.44;5420812;26;20236;-82
2024/04/11 07:32:11;;;;;;;8.23;1.60;;;;;;;11.30;45.27;97141.34;5425268;26;20244;-82
2024/04/11 07:34:36;;;;;;;6.33;1.47;;;;;;;11.52;44.96;97131.03;5424180;26;20238;-83
2024/04/11 07:37:02;;;;;;;4.47;1.43;;;;;;;11.57;44.86;97134.13;5401767;26;20237;-83
2024/04/11 07:39:27;;;;;;;5.70;1.60;;;;;;;11.42;43.67;97127.47;5421784;26;20238;-83
2024/04/11 07:42:18;;;;;;;6.03;1.63;;;;;;;11.66;43.56;97134.34;5425147;26;20242;-83
2024/04/11 07:44:44;;;;;;;8.83;1.70;;;;;;;11.63;44.79;97125.84;5431544;26;20234;-83
2024/04/11 07:47:09;;;;;;;4.03;1.50;;;;;;;11.73;44.54;97130.34;5427837;26;20273;-82
2024/04/11 07:49:35;;;;;;;5.80;1.53;;;;;;;11.55;46.03;97124.75;5424766;26;20580;-84
2024/04/11 07:52:02;;;;;;;4.17;1.40;;;;;;;11.72;46.38;97126.94;5394304;26;20245;-85
2024/04/11 07:54:29;;;;;;;3.23;1.43;;;;;;;11.84;46.48;97138.22;5426431;26;20282;-83
2024/04/11 07:56:55;;;;;;;2.43;1.47;;;;;;;11.93;46.05;97142.75;5385055;26;20283;-83
2024/04/11 07:59:22;;;;;;;3.97;1.90;;;;;;;11.96;45.30;97139.88;5416727;26;20356;-83
2024/04/11 08:01:47;;;;;;;2.73;1.40;;;;;;;12.03;45.20;97137.66;5419428;26;20248;-83
2024/04/11 08:04:12;;;;;;;3.93;1.57;;;;;;;12.07;45.33;97126.88;5397071;26;20749;-82
2024/04/11 08:06:38;;;;;;;6.33;2.00;;;;;;;12.49;44.93;97127.09;5390566;26;20253;-82
2024/04/11 08:09:06;;;;;;;3.97;1.70;;;;;;;12.44;44.50;97131.81;5413124;26;20307;-82
2024/04/11 08:11:34;;;;;;;2.83;1.83;;;;;;;12.64;45.07;97120.66;5383061;26;20247;-83
2024/04/11 08:14:04;;;;;;;6.80;1.83;;;;;;;12.72;43.48;97118.28;5388194;26;20616;-81
2024/04/11 08:16:29;;;;;;;7.27;2.90;;;;;;;12.77;43.12;97125.72;5378117;26;20244;-82
2024/04/11 08:18:55;;;;;;;5.37;2.40;;;;;;;13.04;42.90;97133.91;5423197;26;20235;-81
2024/04/11 08:21:20;;;;;;;6.17;2.10;;;;;;;13.20;42.95;97137.94;5388356;26;20273;-81
2024/04/11 08:23:46;;;;;;;4.63;2.00;;;;;;;13.28;43.32;97141.56;5426987;26;20261;-82
2024/04/11 08:26:15;;;;;;;6.20;2.13;;;;;;;13.33;43.20;97149.84;5413840;26;20248;-82
2024/04/11 08:28:42;;;;;;;5.00;2.30;;;;;;;13.57;42.24;97157.44;5430952;26;20234;-84
2024/04/11 08:31:09;;;;;;;6.80;2.30;;;;;;;13.55;42.83;97156.75;5422401;26;20286;-83
2024/04/11 08:33:35;;;;;;;7.43;3.27;;;;;;;13.82;42.10;97156.22;5397016;26;20289;-83
2024/04/11 08:36:03;;;;;;;3.60;2.20;;;;;;;13.72;40.20;97149.31;5399793;26;20246;-83
2024/04/11 08:38:33;;;;;;;5.10;1.97;;;;;;;13.62;41.58;97143.19;5420636;26;20285;-83
2024/04/11 08:41:00;;;;;;;6.57;2.77;;;;;;;13.81;41.01;97144.13;5393691;26;20240;-83
2024/04/11 08:43:27;;;;;;;4.47;2.40;;;;;;;13.94;39.88;97146.53;5391602;26;20239;-82
2024/04/11 08:45:53;;;;;;;3.03;1.60;;;;;;;14.00;38.77;97147.81;5400275;26;20246;-82
2024/04/11 08:48:19;;;;;;;5.33;1.60;;;;;;;13.95;39.60;97149.97;5422925;26;20779;-82
2024/04/11 08:50:44;;;;;;;3.50;1.60;;;;;;;14.02;40.13;97151.94;5393319;26;20241;-82
2024/04/11 08:53:10;;;;;;;3.43;1.60;;;;;;;14.02;40.67;97151.94;5421006;26;20234;-82
2024/04/11 08:55:36;;;;;;;5.97;2.00;;;;;;;14.23;39.35;97148.47;5409901;26;20274;-83
2024/04/11 08:58:02;;;;;;;4.17;1.80;;;;;;;14.33;40.04;97155.38;5385461;26;20282;-82
2024/04/11 09:00:28;;;;;;;4.13;1.80;;;;;;;14.38;39.99;97155.81;5425778;26;20770;-83
2024/04/11 09:02:55;;;;;;;2.40;1.40;;;;;;;14.23;39.33;97170.19;5430786;26;20226;-82
2024/04/11 09:05:22;;;;;;;4.40;1.50;;;;;;;13.95;38.71;97160.41;5372329;26;20768;-83
2024/04/11 09:07:47;;;;;;;4.53;1.63;;;;;;;14.10;38.45;97164.34;5392148;26;20347;-83
2024/04/11 09:10:13;;;;;;;6.33;1.73;;;;;;;13.59;38.12;97165.97;5423350;26;20256;-82
2024/04/11 09:12:46;;;;;;;3.80;1.60;;;;;;;14.18;38.73;97173.19;5421879;26;20273;-82
2024/04/11 09:15:15;;;;;;;4.43;1.50;;;;;;;14.52;39.08;97169.50;5428733;26;20235;-82
2024/04/11 09:17:43;;;;;;;5.17;1.40;;;;;;;14.89;39.03;97172.38;5422463;26;20234;-82
2024/04/11 09:20:12;;;;;;;2.47;1.20;;;;;;;15.00;35.95;97174.84;5423548;26;20242;-82
2024/04/11 09:22:46;;;;;;;3.40;1.30;;;;;;;15.20;36.63;97173.09;5396161;26;20274;-82
2024/04/11 09:25:12;;;;;;;2.83;1.23;;;;;;;15.34;35.94;97174.47;5376170;26;20267;-81
2024/04/11 09:27:37;;;;;;;2.97;1.23;;;;;;;15.49;34.34;97184.41;5423941;26;20797;-81
2024/04/11 09:30:06;;;;;;;4.53;1.33;;;;;;;15.50;36.06;97183.44;5417784;26;20244;-82
2024/04/11 09:32:35;;;;;;;4.53;1.53;;;;;;;15.18;34.42;97180.25;5421646;26;20243;-81
2024/04/11 09:35:05;;;;;;;2.93;1.30;;;;;;;14.55;34.29;97190.97;5427472;26;20283;-82
2024/04/11 09:37:32;;;;;;;2.73;1.23;;;;;;;14.65;34.50;97185.78;5392113;26;20248;-81
2024/04/11 09:40:11;;;;;;;3.97;1.10;;;;;;;14.69;33.37;97192.41;5411312;26;20234;-82
2024/04/11 09:42:39;;;;;;;4.33;1.50;;;;;;;14.46;33.62;97197.00;5392966;26;20239;-82
2024/04/11 09:45:10;;;;;;;4.97;1.40;;;;;;;14.75;34.48;97194.47;5430550;26;20226;-83
2024/04/11 09:47:38;;;;;;;2.63;1.47;;;;;;;15.05;35.35;97190.16;5396518;26;20771;-82
2024/04/11 09:50:05;;;;;;;2.27;1.30;;;;;;;14.97;33.23;97196.88;5394891;26;20801;-82
2024/04/11 09:52:37;;;;;;;4.30;1.37;;;;;;;15.15;34.37;97198.84;5430603;26;20374;-82
2024/04/11 09:55:04;;;;;;;3.17;1.33;;;;;;;15.08;34.32;97198.56;5359536;26;20258;-81
2024/04/11 09:57:31;;;;;;;3.57;1.47;;;;;;;15.20;34.30;97196.66;5424399;26;20253;-80
2024/04/11 09:59:57;;;;;;;2.37;1.30;;;;;;;15.10;34.61;97201.03;5397453;26;20246;-81
2024/04/11 10:02:25;;;;;;;3.43;1.47;;;;;;;15.25;33.97;97204.91;5426449;26;20287;-85
2024/04/11 10:04:57;;;;;;;2.53;1.07;;;;;;;15.52;33.00;97199.00;5404713;26;20277;-82
2024/04/11 10:07:25;;;;;;;2.43;1.20;;;;;;;15.57;33.40;97200.25;5422457;26;20282;-82
2024/04/11 10:09:52;;;;;;;3.37;1.10;;;;;;;15.83;33.48;97195.31;5409312;26;20262;-82
2024/04/11 10:12:19;;;;;;;3.73;1.73;;;;;;;15.91;34.44;97199.84;5396363;26;20285;-81
2024/04/11 10:14:48;;;;;;;4.13;1.47;;;;;;;15.94;34.41;97196.09;5399156;26;20613;-82
2024/04/11 10:17:14;;;;;;;3.23;1.63;;;;;;;15.97;34.83;97194.03;5420443;26;21028;-82
2024/04/11 10:19:43;;;;;;;4.50;1.10;;;;;;;16.11;34.28;97198.00;5433552;26;20233;-81
2024/04/11 10:22:15;;;;;;;4.07;1.80;;;;;;;16.17;34.35;97193.97;5400553;26;20752;-80
2024/04/11 10:24:44;;;;;;;4.23;1.30;;;;;;;15.85;33.45;97195.97;5395212;26;20668;-82
2024/04/11 10:27:19;;;;;;;4.83;1.87;;;;;;;15.90;35.57;97190.31;5415671;26;20236;-82
2024/04/11 10:29:49;;;;;;;4.80;1.90;;;;;;;15.10;36.66;97193.19;5396281;26;20774;-81
2024/04/11 10:32:15;;;;;;;3.10;1.93;;;;;;;15.58;35.73;97198.47;5416882;26;20244;-82
2024/04/11 10:34:56;;;;;;;4.07;1.73;;;;;;;15.56;38.74;97198.59;5430073;26;20273;-82
2024/04/11 10:37:25;;;;;;;6.60;1.80;;;;;;;15.55;37.65;97196.94;5398905;26;20266;-82
2024/04/11 10:39:55;;;;;;;7.73;2.33;;;;;;;15.49;38.74;97194.88;5422621;26;20241;-82
2024/04/11 10:43:11;;;;;;;4.35;1.92;;;;;;;15.09;39.05;97202.81;5426164;26;20273;-81
2024/04/11 10:45:19;;;;;;;5.00;2.10;;;;;;;15.17;39.11;97205.59;5414876;26;20563;-81
2024/04/11 10:47:44;;;;;;;5.83;2.30;;;;;;;15.14;38.88;97207.66;5433440;26;20242;-84
2024/04/11 10:50:13;;;;;;;7.33;2.50;;;;;;;15.63;38.05;97205.91;5393847;26;20247;-82
2024/04/11 10:52:46;;;;;;;7.97;2.30;;;;;;;15.00;38.76;97203.63;5429371;26;20242;-81
2024/04/11 10:55:14;;;;;;;4.17;1.90;;;;;;;15.34;38.08;97193.63;5391559;26;20243;-82
2024/04/11 10:57:44;;;;;;;8.23;2.10;;;;;;;15.71;37.83;97198.19;5423268;26;20257;-83
2024/04/11 11:00:11;;;;;;;8.43;2.37;;;;;;;15.54;38.36;97199.69;5438484;26;20251;-82
2024/04/11 11:02:38;;;;;;;8.23;2.57;;;;;;;15.40;38.56;97197.50;5447210;26;20248;-83
2024/04/11 11:05:06;;;;;;;5.37;2.47;;;;;;;15.58;38.08;97201.06;5434644;26;20228;-81
2024/04/11 11:07:32;;;;;;;9.07;2.25;;;;;;;15.45;38.51;97193.47;5435173;26;20273;-82
2024/04/11 11:09:57;;;;;;;6.53;2.57;;;;;;;15.45;37.66;97195.28;5394430;26;20242;-83
2024/04/11 11:12:24;;;;;;;7.27;2.27;;;;;;;15.10;38.29;97201.84;5401451;26;20242;-81
2024/04/11 11:14:53;;;;;;;4.67;2.33;;;;;;;15.77;38.17;97203.72;5405833;26;20246;-82
2024/04/11 11:17:18;;;;;;;5.33;2.30;;;;;;;15.76;37.20;97194.19;5424888;26;20299;-82
2024/04/11 11:19:50;;;;;;;6.40;2.33;;;;;;;16.01;37.99;97187.53;5430136;26;20329;-82
2024/04/11 11:22:18;;;;;;;5.53;2.53;;;;;;;15.46;38.16;97195.16;5419600;26;20239;-82
2024/04/11 11:24:44;;;;;;;6.30;2.40;;;;;;;15.24;37.81;97187.56;5401006;26;20292;-82
2024/04/11 11:27:09;;;;;;;3.73;2.50;;;;;;;15.47;37.07;97193.38;5427805;26;20236;-84
2024/04/11 11:29:36;;;;;;;5.80;2.43;;;;;;;15.46;36.94;97189.94;5427138;26;20317;-82
2024/04/11 11:32:01;;;;;;;9.03;2.70;;;;;;;16.03;36.65;97179.53;5420652;26;20234;-83
2024/04/11 11:34:30;;;;;;;4.20;2.30;;;;;;;16.45;34.89;97172.09;5430705;26;20228;-83
2024/04/11 11:37:03;;;;;;;5.25;2.13;;;;;;;16.17;35.40;97173.00;5434418;26;21030;-83
2024/04/11 11:39:36;;;;;;;8.77;4.50;;;;;;;16.01;35.56;97176.25;5421304;26;20668;-82
2024/04/11 11:42:23;;;;;;;7.00;4.67;;;;;;;16.06;35.91;97172.22;5396294;26;20250;-82
2024/04/11 11:47:33;;;;;;;6.47;4.90;;;;;;;16.13;34.95;97164.63;5433454;26;20643;-83
2024/04/11 11:50:07;;;;;;;6.17;4.17;;;;;;;16.61;34.61;97156.56;5396968;26;20245;-82
2024/04/11 11:52:37;;;;;;;8.13;4.47;;;;;;;16.36;35.05;97150.19;5427440;26;20247;-81
2024/04/11 11:55:06;;;;;;;6.73;4.17;;;;;;;16.98;34.72;97155.69;5433093;26;20242;-82
2024/04/11 11:57:39;;;;;;;8.80;4.30;;;;;;;17.19;33.60;97156.22;5422016;26;20248;-81
2024/04/11 12:00:21;;;;;;;6.20;4.40;;;;;;;17.23;34.81;97149.72;5396057;26;20604;-82
2024/04/11 12:02:56;;;;;;;6.28;3.38;;;;;;;17.09;32.80;97144.97;5426713;26;20319;-82
2024/04/11 12:05:25;;;;;;;7.20;3.30;;;;;;;17.56;33.02;97145.53;5406858;26;20238;-82
2024/04/11 12:07:58;;;;;;;6.53;3.45;;;;;;;17.07;34.20;97146.94;5426267;26;20234;-82
2024/04/11 12:11:14;;;;;;;12.00;3.55;;;;;;;16.72;34.42;97139.00;5441626;26;20239;-85
2024/04/11 12:13:19;;;;;;;5.70;3.35;;;;;;;17.11;33.30;97137.75;5427455;26;20689;-80
2024/04/11 12:15:48;;;;;;;5.65;3.13;;;;;;;17.19;34.27;97135.22;5405265;26;20242;-81
2024/04/11 12:18:22;;;;;;;5.45;2.95;;;;;;;17.14;33.44;97134.00;5410986;26;20276;-80
2024/04/11 12:20:57;;;;;;;6.90;3.00;;;;;;;17.64;32.33;97126.41;5438228;26;20333;-80
2024/04/11 12:23:23;;;;;;;13.07;3.67;;;;;;;17.97;32.45;97127.47;5424997;26;20737;-81